Caete, Brazil
Current Conditions -  °F | °C
As of 1:00 AM on Wednesday 22 Oct 2014 (Local Time) from SBCF Reporting Station
Broken Clouds Broken Clouds  
Wind Chill: 70°   Ceiling: 10000
Heat Index: 70°   Visibility: 6mi
Dew Point: 61°   Wind: 15mph
Humidity: 73%   Direction: 110°ESE
Pressure: 30.09"   Gusts: NA
Location:  19.88°S, 43.68°W
Report Text: SBCF 220300Z 11013KT 9999 FEW035 SCT070 BKN100 21/16 Q1019
Loading
Personal Weather Stations






























Interactive Weather Map
Tropical Storm Tracking
New forecast layout! Learn more

10-Day Weather Forecast

Advertisements
Track Severe Weather on mobile